Página principal
METAR-TAF:

METAR-TAF

Aeroportos :

Dallas / Addison, Texas, Estados Unidos

latitude: 32-58N, longitude: 096-50W, altura: 196 m

Observação actual do tempo

O boletim foi feito há 52 minutos, às 20:50 UTC
Vento 6 kt de sul com rajadas de 14 kt
Temperatura 18°C
Humidade 26%
Pressão 1023 hPa
Visibilidade: 16.1 km
Céu limpo

METAR: KADS 162050Z 19006G14KT 10SM SKC 18/M02 A3021

Hora: 15:42 (21:42 UTC)


TAF: em falta

Observações e previsões do tempo de mais de 4000 aeroportos (mensagens METAR e TAF).

As estações disponíveis são os pontos amarelos e vermelhos sobre o mapa.

Mova o rato sobre o mapa para ver o nome da estação.

Depois clique no ponto para visualizar as observações e previsões meteorológicas.

Para alterar o mapa : clique nos botões verdes com uma cruz preta para aumentar o zoom; no botão verde com uma pitada de zoom; ou nas setas verdes para mapas adjacentes.


METAR-TAF: